Milwaukee, Wisconsin
Traffic Map
Current Weather Conditions
Milwaukee, Wisconsin
Few Clouds
Few Clouds
32°
Feels Like: 20°
Wind Chill: 20° Ceiling: Unl
Heat Index: 32° Visibility: 10mi
Dew Point: 18° Wind: 20mph
Humidity: 56% Direction: 240° (WSW)
Pressure: 29.92in Gusts: 28mph
Raw Report DataKMKE 181952Z 24017G24KT 10SM FEW180 FEW250 00/M08 A2992 RMK AO2 SLP141 T00001078
Traffic Incident Summary
Active as of:
Severity:
Category:
InformationThere was an issue retrieving the traffic information for this location. Please try a different location or try again shortly.
Advertisements